Time;durP1;ratioP1;P1;durP2;ratioP2;P2;SDS_P1;SDS_P2;PMS_P1;PMS_P2;Temp;Humidity;BMP_temperature;BMP_pressure;BME280_temperature;BME280_humidity;BME280_pressure;Samples;Min_cycle;Max_cycle;Signal;HPM_P1;HPM_P2
2022/07/08 00:00:12;;;;;;;27.00;4.95;;;;;;;15.52;67.76;102245.38;4930970;29;20034;-74
2022/07/08 00:02:37;;;;;;;30.10;5.43;;;;;;;15.44;67.72;102249.75;4933742;29;20355;-73
2022/07/08 00:05:03;;;;;;;38.45;6.88;;;;;;;15.37;68.26;102259.56;4934951;29;20043;-71
2022/07/08 00:07:28;;;;;;;27.80;5.15;;;;;;;15.46;68.07;102253.19;4936177;29;20127;-75
2022/07/08 00:09:53;;;;;;;31.48;5.40;;;;;;;15.35;68.16;102275.25;4928808;29;20068;-72
2022/07/08 00:12:19;;;;;;;43.05;5.68;;;;;;;15.22;68.99;102272.06;4937306;29;20050;-73
2022/07/08 00:14:44;;;;;;;27.35;4.90;;;;;;;15.32;68.55;102267.41;4928184;29;20024;-72
2022/07/08 00:17:10;;;;;;;29.77;5.35;;;;;;;15.19;68.89;102277.81;4933782;29;20019;-74
2022/07/08 00:19:35;;;;;;;32.53;4.63;;;;;;;15.13;69.28;102275.72;4913856;29;20114;-73
2022/07/08 00:22:00;;;;;;;42.20;5.88;;;;;;;15.18;69.23;102270.63;4917495;29;20055;-72
2022/07/08 00:24:26;;;;;;;35.72;5.07;;;;;;;15.24;69.07;102275.47;4917219;29;20032;-72
2022/07/08 00:26:51;;;;;;;23.83;4.20;;;;;;;15.21;69.13;102270.34;4928993;29;20039;-74
2022/07/08 00:29:17;;;;;;;31.38;5.93;;;;;;;15.14;69.01;102274.69;4927694;29;20032;-72
2022/07/08 00:31:42;;;;;;;39.40;4.75;;;;;;;14.98;69.61;102274.50;4910899;29;20067;-74
2022/07/08 00:34:07;;;;;;;29.00;5.28;;;;;;;15.14;68.56;102270.09;4930483;29;20055;-75
2022/07/08 00:36:35;;;;;;;36.08;6.95;;;;;;;14.98;68.97;102280.81;4912165;29;20083;-74
2022/07/08 00:39:00;;;;;;;33.53;6.75;;;;;;;15.02;68.79;102265.00;4930891;29;20028;-74
2022/07/08 00:41:26;;;;;;;38.90;5.65;;;;;;;14.98;68.84;102269.03;4930219;29;20080;-75
2022/07/08 00:43:51;;;;;;;28.88;4.75;;;;;;;14.87;68.96;102273.72;4928568;29;20142;-76
2022/07/08 00:46:16;;;;;;;34.42;5.22;;;;;;;14.98;68.33;102279.97;4911854;29;20068;-74
2022/07/08 00:48:43;;;;;;;35.40;5.65;;;;;;;15.04;67.76;102265.72;4926965;29;20031;-77
2022/07/08 00:51:15;;;;;;;34.95;5.50;;;;;;;15.02;68.08;102270.47;4929035;29;20119;-74
2022/07/08 00:53:45;;;;;;;25.77;4.22;;;;;;;15.06;68.18;102271.84;4929511;29;20032;-73
2022/07/08 00:56:11;;;;;;;31.67;4.70;;;;;;;15.22;67.38;102277.50;4915569;29;20038;-75
2022/07/08 00:58:37;;;;;;;33.38;4.82;;;;;;;15.04;67.45;102279.34;4925305;29;20126;-76
2022/07/08 01:01:03;;;;;;;26.55;4.35;;;;;;;15.17;66.95;102280.69;4928637;29;20115;-74
2022/07/08 01:03:29;;;;;;;30.13;3.90;;;;;;;15.23;66.84;102279.22;4925609;29;20484;-74
2022/07/08 01:05:54;;;;;;;24.45;4.72;;;;;;;15.14;67.25;102274.69;4911815;29;20028;-75
2022/07/08 01:08:20;;;;;;;30.77;5.13;;;;;;;15.05;66.86;102275.59;4903937;29;20067;-73
2022/07/08 01:10:46;;;;;;;26.77;4.32;;;;;;;15.13;67.04;102283.91;4926989;29;20075;-74
2022/07/08 01:13:11;;;;;;;32.88;4.78;;;;;;;15.18;66.81;102276.94;4926933;29;20083;-74
2022/07/08 01:15:36;;;;;;;26.50;4.40;;;;;;;15.08;66.45;102269.84;4910868;29;20229;-73
2022/07/08 01:18:02;;;;;;;22.60;4.00;;;;;;;14.98;67.35;102279.97;4911425;29;20024;-73
2022/07/08 01:20:31;;;;;;;33.25;4.13;;;;;;;15.08;67.16;102280.78;4927431;29;20023;-73
2022/07/08 01:22:57;;;;;;;25.52;3.92;;;;;;;15.16;66.79;102278.13;4910256;29;20023;-72
2022/07/08 01:25:22;;;;;;;38.83;4.97;;;;;;;15.07;67.15;102279.91;4934112;29;20020;-74
2022/07/08 01:27:47;;;;;;;31.85;4.80;;;;;;;15.11;67.24;102289.50;4931961;29;20024;-72
2022/07/08 01:30:13;;;;;;;42.38;5.50;;;;;;;14.96;67.29;102279.25;4935112;29;20111;-77
2022/07/08 01:32:41;;;;;;;31.70;4.97;;;;;;;15.24;66.58;102280.94;4926094;29;20035;-72
2022/07/08 01:35:08;;;;;;;32.47;4.88;;;;;;;15.14;66.53;102277.44;4928243;29;20069;-74
2022/07/08 01:37:33;;;;;;;34.20;3.85;;;;;;;15.16;66.34;102280.84;4937417;29;20123;-75
2022/07/08 01:39:58;;;;;;;32.15;4.25;;;;;;;15.11;66.27;102275.84;4926078;29;20114;-74
2022/07/08 01:42:24;;;;;;;29.15;4.28;;;;;;;15.02;66.56;102286.84;4927383;29;20028;-75
2022/07/08 01:44:49;;;;;;;30.90;3.72;;;;;;;14.92;66.78;102287.72;4910597;29;20023;-75
2022/07/08 01:47:15;;;;;;;36.15;3.92;;;;;;;15.29;65.77;102303.16;4929521;29;20032;-72
2022/07/08 01:49:40;;;;;;;35.17;4.60;;;;;;;15.25;65.87;102292.69;4926622;29;20036;-73
2022/07/08 01:52:07;;;;;;;41.90;5.05;;;;;;;15.11;66.17;102302.28;4927449;29;20075;-74
2022/07/08 01:54:32;;;;;;;36.38;6.03;;;;;;;15.08;65.90;102297.13;4933173;29;20434;-74
2022/07/08 01:57:18;;;;;;;21.05;3.92;;;;;;;15.18;65.83;102292.47;4934193;29;20019;-75
2022/07/08 01:59:49;;;;;;;24.67;4.90;;;;;;;15.05;65.89;102286.50;4926134;29;20023;-74
2022/07/08 02:02:17;;;;;;;21.98;3.42;;;;;;;15.23;65.19;102295.59;4926522;29;20024;-73
2022/07/08 02:04:43;;;;;;;22.65;3.92;;;;;;;15.20;65.12;102287.72;4914431;29;20028;-75
2022/07/08 02:07:08;;;;;;;30.90;3.72;;;;;;;15.21;64.95;102292.16;4930730;29;20046;-75
2022/07/08 02:09:35;;;;;;;19.70;3.85;;;;;;;15.21;64.43;102292.16;4933484;29;20039;-72
2022/07/08 02:12:19;;;;;;;27.60;4.35;;;;;;;15.05;64.84;102302.88;4926038;29;20031;-73
2022/07/08 02:14:50;;;;;;;21.80;3.83;;;;;;;15.01;65.14;102301.50;4926973;29;20548;-72
2022/07/08 02:17:17;;;;;;;23.15;4.10;;;;;;;15.05;63.68;102298.28;4930106;28;20103;-75
2022/07/08 02:19:43;;;;;;;25.30;2.85;;;;;;;15.05;64.01;102294.69;4930162;29;20028;-72
2022/07/08 02:22:09;;;;;;;19.15;3.42;;;;;;;15.00;63.52;102288.88;4924615;29;20035;-73
2022/07/08 02:24:36;;;;;;;22.63;4.85;;;;;;;15.04;63.33;102284.81;4924645;29;20048;-74
2022/07/08 02:27:55;;;;;;;38.38;4.90;;;;;;;14.98;63.40;102290.88;4913009;29;20530;-72
2022/07/08 02:30:20;;;;;;;20.60;3.60;;;;;;;15.01;63.34;102290.59;4980751;23;20041;-75
2022/07/08 02:32:45;;;;;;;15.95;2.78;;;;;;;14.97;63.09;102294.63;4981844;28;20026;-73
2022/07/08 02:35:11;;;;;;;17.75;3.22;;;;;;;15.09;63.29;102293.41;4976669;28;20030;-74
2022/07/08 02:37:36;;;;;;;23.13;3.20;;;;;;;15.14;62.43;102299.25;4981923;28;20465;-73
2022/07/08 02:40:02;;;;;;;26.30;3.53;;;;;;;15.06;62.63;102304.59;5007312;28;20061;-74
2022/07/08 02:42:27;;;;;;;19.90;3.67;;;;;;;15.14;62.83;102312.91;4993861;28;20030;-75
2022/07/08 02:44:52;;;;;;;23.55;3.05;;;;;;;15.01;62.92;102312.41;4987093;28;20036;-74
2022/07/08 02:47:18;;;;;;;24.42;3.97;;;;;;;15.10;62.37;102316.94;4990490;28;20071;-74
2022/07/08 02:49:43;;;;;;;25.08;3.80;;;;;;;15.07;62.69;102317.25;4991102;28;20037;-73
2022/07/08 02:52:09;;;;;;;18.48;3.30;;;;;;;15.06;62.27;102318.22;5002894;28;20041;-73
2022/07/08 02:54:34;;;;;;;20.00;3.20;;;;;;;15.11;62.47;102324.09;4989577;28;20030;-74
2022/07/08 02:57:00;;;;;;;14.82;3.65;;;;;;;15.09;62.31;102321.53;4991801;28;20033;-74
2022/07/08 02:59:25;;;;;;;23.98;2.95;;;;;;;15.13;62.17;102322.09;5008437;28;20067;-73
2022/07/08 03:01:50;;;;;;;31.35;6.07;;;;;;;15.25;62.12;102326.31;4991362;28;20026;-75
2022/07/08 03:04:16;;;;;;;16.83;3.38;;;;;;;15.07;62.54;102322.72;4995304;28;20112;-74
2022/07/08 03:06:41;;;;;;;19.00;3.15;;;;;;;15.05;62.45;102324.72;4989161;28;20022;-74
2022/07/08 03:09:07;;;;;;;19.58;3.47;;;;;;;15.18;62.17;102330.66;4989169;28;20113;-73
2022/07/08 03:11:32;;;;;;;30.45;4.65;;;;;;;15.17;62.23;102331.69;4995647;28;20021;-73
2022/07/08 03:13:57;;;;;;;23.33;4.13;;;;;;;15.00;62.77;102327.91;4992146;28;20097;-73
2022/07/08 03:16:23;;;;;;;21.98;3.60;;;;;;;14.93;63.05;102327.66;4998059;28;20052;-73
2022/07/08 03:18:48;;;;;;;19.45;3.00;;;;;;;15.01;62.73;102328.78;5007109;28;20034;-75
2022/07/08 03:21:14;;;;;;;21.27;3.35;;;;;;;14.86;63.33;102326.53;4992762;28;20022;-73
2022/07/08 03:23:39;;;;;;;22.55;3.13;;;;;;;14.95;62.98;102321.19;5008183;28;20034;-74
2022/07/08 03:26:04;;;;;;;22.83;3.08;;;;;;;15.07;62.68;102322.72;4991404;28;20029;-74
2022/07/08 03:28:30;;;;;;;16.88;3.92;;;;;;;15.12;62.30;102325.81;4994477;28;20030;-73
2022/07/08 03:30:55;;;;;;;30.27;3.78;;;;;;;15.14;62.37;102329.28;5006531;28;20030;-74
2022/07/08 03:33:21;;;;;;;24.33;3.20;;;;;;;14.97;63.06;102327.34;5004718;28;20021;-73
2022/07/08 03:35:46;;;;;;;27.17;3.90;;;;;;;15.00;62.90;102327.06;4988491;28;20036;-74
2022/07/08 03:38:12;;;;;;;18.52;3.78;;;;;;;15.03;63.05;102337.66;4990038;28;20455;-74
2022/07/08 03:43:21;;;;;;;24.50;4.18;;;;;;;15.13;62.43;102335.75;5006268;28;20072;-74
2022/07/08 03:45:47;;;;;;;19.45;2.75;;;;;;;15.07;63.02;102339.06;4989466;28;20037;-74
2022/07/08 03:48:12;;;;;;;26.77;3.60;;;;;;;15.22;62.72;102337.53;5008458;28;20256;-73
2022/07/08 03:50:37;;;;;;;20.05;3.92;;;;;;;15.46;62.15;102340.56;4988933;28;20045;-74
2022/07/08 03:53:03;;;;;;;18.65;3.30;;;;;;;15.27;62.56;102348.88;5003730;28;20031;-74
2022/07/08 03:55:29;;;;;;;24.10;3.70;;;;;;;15.33;62.34;102345.53;4988722;28;20029;-74
2022/07/08 03:57:54;;;;;;;21.45;3.40;;;;;;;15.24;62.50;102338.25;5005316;28;20375;-74
2022/07/08 04:00:19;;;;;;;18.70;3.35;;;;;;;14.96;63.71;102344.72;4989373;28;20557;-73
2022/07/08 04:02:48;;;;;;;28.05;4.43;;;;;;;15.24;63.14;102346.41;4988565;28;20026;-73
2022/07/08 04:05:14;;;;;;;26.83;4.53;;;;;;;15.08;63.34;102347.09;4992044;28;20036;-74
2022/07/08 04:07:39;;;;;;;16.17;3.28;;;;;;;15.09;63.36;102348.81;4997007;28;20034;-75
2022/07/08 04:10:06;;;;;;;20.75;3.50;;;;;;;15.09;63.50;102353.41;5015110;28;20044;-74
2022/07/08 04:12:31;;;;;;;16.75;2.85;;;;;;;15.13;63.50;102349.38;5002421;28;20050;-74
2022/07/08 04:14:57;;;;;;;21.27;3.20;;;;;;;15.13;63.78;102354.84;4987366;28;20076;-74
2022/07/08 04:17:22;;;;;;;24.98;3.90;;;;;;;15.22;63.21;102353.91;5009933;28;20026;-74
2022/07/08 04:19:47;;;;;;;20.35;3.85;;;;;;;15.00;64.26;102360.66;5014897;28;20536;-74
2022/07/08 04:22:13;;;;;;;19.65;3.47;;;;;;;15.05;64.12;102357.44;5008479;28;20036;-74
2022/07/08 04:24:38;;;;;;;23.58;3.45;;;;;;;15.16;64.10;102370.91;4999017;28;20103;-75
2022/07/08 04:27:03;;;;;;;24.30;4.57;;;;;;;15.11;64.28;102373.22;4992823;28;20029;-74
2022/07/08 04:29:29;;;;;;;19.77;3.55;;;;;;;15.19;64.10;102370.56;4992642;28;20049;-75
2022/07/08 04:31:54;;;;;;;20.80;3.60;;;;;;;15.04;64.44;102372.97;4989607;28;20536;-75
2022/07/08 04:34:19;;;;;;;20.67;3.22;;;;;;;15.02;65.39;102379.59;4989269;28;20018;-74
2022/07/08 04:36:45;;;;;;;22.67;4.40;;;;;;;14.75;65.84;102378.53;5009169;28;20033;-74
2022/07/08 04:39:10;;;;;;;26.10;4.22;;;;;;;14.72;66.08;102384.28;4994520;28;20018;-74
2022/07/08 04:41:37;;;;;;;17.92;3.00;;;;;;;14.97;65.92;102381.91;4989224;28;20022;-75
2022/07/08 04:44:03;;;;;;;20.48;4.63;;;;;;;15.15;65.25;102380.09;4998900;28;20027;-75
2022/07/08 04:46:28;;;;;;;28.85;4.15;;;;;;;15.02;65.66;102380.44;5001904;28;20379;-73
2022/07/08 04:48:54;;;;;;;24.70;3.38;;;;;;;15.09;65.41;102386.16;4981519;28;20022;-75
2022/07/08 04:51:19;;;;;;;24.48;3.28;;;;;;;15.06;65.36;102381.88;5005937;28;20024;-75
2022/07/08 04:53:45;;;;;;;28.65;3.95;;;;;;;14.83;66.12;102389.56;5015964;28;20019;-74
2022/07/08 04:56:10;;;;;;;28.90;4.10;;;;;;;14.99;66.23;102390.78;4987188;28;20029;-75
2022/07/08 04:58:36;;;;;;;32.08;4.65;;;;;;;14.91;66.55;102392.38;4992512;28;20017;-74
2022/07/08 05:01:01;;;;;;;30.90;4.80;;;;;;;14.95;66.08;102378.47;4998879;28;20022;-75
2022/07/08 05:03:27;;;;;;;18.50;3.45;;;;;;;15.21;65.65;102384.94;4993381;28;20014;-74
2022/07/08 05:05:52;;;;;;;19.88;3.60;;;;;;;15.04;66.23;102393.94;4991528;28;20021;-75
2022/07/08 05:08:17;;;;;;;14.52;3.00;;;;;;;15.25;65.51;102396.41;5000340;28;20017;-75
2022/07/08 05:10:43;;;;;;;20.95;3.22;;;;;;;15.36;65.62;102394.34;4994833;28;20026;-75
2022/07/08 05:13:09;;;;;;;27.52;3.25;;;;;;;15.26;65.78;102392.66;4991326;28;20108;-72
2022/07/08 05:15:44;;;;;;;31.33;3.83;;;;;;;15.30;65.57;102394.94;5007675;28;20045;-75
2022/07/08 05:18:10;;;;;;;21.48;3.88;;;;;;;15.45;65.31;102398.00;4982147;28;20021;-76
2022/07/08 05:20:36;;;;;;;27.67;3.78;;;;;;;15.38;65.47;102403.22;4996850;28;20025;-77
2022/07/08 05:23:02;;;;;;;26.25;3.83;;;;;;;15.52;65.12;102396.41;4997116;28;20055;-74
2022/07/08 05:25:27;;;;;;;23.77;3.47;;;;;;;15.58;64.67;102398.50;4988930;28;20017;-73
2022/07/08 05:27:52;;;;;;;26.67;4.55;;;;;;;15.46;64.76;102392.41;4993329;28;20113;-75
2022/07/08 05:30:18;;;;;;;25.77;3.40;;;;;;;15.84;63.72;102398.63;4990768;28;20056;-75
2022/07/08 05:32:43;;;;;;;26.17;4.60;;;;;;;15.93;63.54;102397.72;4996540;28;20017;-74
2022/07/08 05:35:10;;;;;;;21.55;3.55;;;;;;;15.82;63.82;102389.75;4995115;28;20064;-74
2022/07/08 05:37:38;;;;;;;16.02;3.53;;;;;;;15.65;63.94;102393.34;4998800;28;20022;-74
2022/07/08 05:40:11;;;;;;;26.15;3.05;;;;;;;15.49;64.68;102388.50;4992787;28;20033;-74
2022/07/08 05:42:37;;;;;;;22.02;3.40;;;;;;;15.65;64.37;102387.88;4990513;28;20018;-74
2022/07/08 05:45:04;;;;;;;26.35;4.10;;;;;;;15.43;64.69;102389.97;4988734;28;20025;-75
2022/07/08 05:47:30;;;;;;;22.35;2.90;;;;;;;15.62;64.96;102390.91;4994587;28;20030;-76
2022/07/08 05:49:55;;;;;;;27.90;3.58;;;;;;;15.51;64.63;102402.00;4990206;28;20026;-75
2022/07/08 05:52:20;;;;;;;32.90;3.45;;;;;;;15.48;64.81;102393.13;4989162;28;20026;-75
2022/07/08 05:54:46;;;;;;;19.23;2.83;;;;;;;15.62;64.70;102388.16;4989731;28;20034;-75
2022/07/08 05:57:12;;;;;;;23.58;3.67;;;;;;;15.91;63.96;102399.75;4989386;28;20076;-74
2022/07/08 05:59:38;;;;;;;24.88;3.60;;;;;;;15.95;63.04;102405.75;4989100;28;20029;-75
2022/07/08 06:02:03;;;;;;;19.60;3.03;;;;;;;15.95;62.98;102395.69;4990699;28;20025;-74
2022/07/08 06:04:29;;;;;;;19.70;3.55;;;;;;;15.65;63.76;102398.81;4991789;28;20522;-74
2022/07/08 06:06:54;;;;;;;23.13;3.38;;;;;;;15.84;63.58;102404.09;4989509;28;20030;-74
2022/07/08 06:09:20;;;;;;;24.40;3.92;;;;;;;15.99;63.48;102408.03;4990652;28;20025;-74
2022/07/08 06:11:45;;;;;;;24.73;3.70;;;;;;;16.18;63.18;102408.88;4992811;28;20033;-74
2022/07/08 06:14:11;;;;;;;20.83;3.03;;;;;;;16.14;63.22;102426.59;4989026;28;20028;-74
2022/07/08 06:16:36;;;;;;;22.15;4.10;;;;;;;15.98;63.53;102428.16;4986374;28;20474;-74
2022/07/08 06:19:01;;;;;;;17.92;3.13;;;;;;;16.32;62.92;102430.19;4989929;28;20033;-74
2022/07/08 06:21:27;;;;;;;27.70;4.45;;;;;;;16.39;62.00;102414.84;4985955;28;20013;-74
2022/07/08 06:23:53;;;;;;;20.20;4.00;;;;;;;16.46;61.78;102426.88;4988184;28;20061;-75
2022/07/08 06:26:18;;;;;;;26.05;4.13;;;;;;;16.63;60.55;102427.84;5003995;28;20470;-74
2022/07/08 06:28:44;;;;;;;29.95;3.88;;;;;;;16.65;60.61;102423.06;4984093;28;20493;-75
2022/07/08 06:31:09;;;;;;;22.45;3.55;;;;;;;16.50;60.66;102420.06;4987610;28;20105;-75
2022/07/08 06:33:35;;;;;;;23.20;3.55;;;;;;;16.26;61.18;102426.19;4993502;28;20088;-74
2022/07/08 06:36:00;;;;;;;21.33;3.63;;;;;;;16.29;61.32;102420.41;5006738;28;20131;-68
2022/07/08 06:38:25;;;;;;;26.50;3.55;;;;;;;16.40;61.23;102427.50;5007116;28;20017;-69
2022/07/08 06:40:51;;;;;;;21.75;3.90;;;;;;;16.63;60.70;102432.47;5006988;28;20057;-69
2022/07/08 06:43:17;;;;;;;20.77;3.13;;;;;;;16.70;60.57;102422.63;4992061;28;20471;-70
2022/07/08 06:45:43;;;;;;;25.70;4.82;;;;;;;16.98;59.69;102410.50;4999395;28;20079;-69
2022/07/08 06:48:09;;;;;;;23.17;3.70;;;;;;;16.88;59.72;102404.25;5014706;28;20034;-68
2022/07/08 06:50:34;;;;;;;16.05;2.65;;;;;;;16.89;59.66;102416.94;4990517;28;20026;-69
2022/07/08 06:52:59;;;;;;;19.50;3.67;;;;;;;16.83;59.22;102420.34;4996020;28;20010;-69
2022/07/08 06:55:25;;;;;;;25.13;3.75;;;;;;;16.68;59.76;102435.56;4978481;28;20025;-69
2022/07/08 06:57:50;;;;;;;31.60;3.83;;;;;;;16.71;60.31;102440.75;4971815;28;20038;-70
2022/07/08 07:00:16;;;;;;;25.65;3.97;;;;;;;16.80;59.74;102434.31;4986268;28;20018;-70
2022/07/08 07:02:41;;;;;;;23.98;3.65;;;;;;;16.84;60.18;102440.34;4989025;28;20034;-69
2022/07/08 07:05:08;;;;;;;24.73;2.67;;;;;;;17.29;59.29;102431.88;4983925;28;20014;-70
2022/07/08 07:07:34;;;;;;;20.77;3.65;;;;;;;17.33;59.30;102435.97;4989692;28;20025;-69
2022/07/08 07:09:59;;;;;;;28.08;3.95;;;;;;;17.39;59.52;102440.78;4991639;28;20025;-69
2022/07/08 07:12:25;;;;;;;15.05;2.72;;;;;;;17.27;59.26;102442.09;4997057;28;20014;-71
2022/07/08 07:14:51;;;;;;;24.98;3.67;;;;;;;16.80;60.45;102446.13;4979574;28;20022;-69
2022/07/08 07:17:18;;;;;;;23.10;3.72;;;;;;;17.06;60.30;102429.69;4986810;28;20367;-70
2022/07/08 07:19:47;;;;;;;20.65;3.45;;;;;;;17.01;60.79;102443.00;4991298;28;20402;-69
2022/07/08 07:22:14;;;;;;;22.88;3.58;;;;;;;17.08;61.03;102435.00;4976138;28;20108;-70
2022/07/08 07:24:40;;;;;;;16.25;3.03;;;;;;;17.48;60.29;102450.78;5003340;28;20049;-71
2022/07/08 07:27:06;;;;;;;15.40;2.72;;;;;;;17.44;60.18;102449.38;4991504;28;20100;-70
2022/07/08 07:29:33;;;;;;;20.63;4.40;;;;;;;17.55;60.05;102451.81;4983641;28;20022;-68
2022/07/08 07:31:58;;;;;;;16.15;3.25;;;;;;;17.02;61.32;102449.34;4998422;28;20044;-70
2022/07/08 07:34:24;;;;;;;14.65;2.92;;;;;;;16.81;62.32;102464.25;4987244;28;20018;-70
2022/07/08 07:36:49;;;;;;;19.38;3.50;;;;;;;16.90;62.30;102467.91;4978042;28;20080;-69
2022/07/08 07:39:15;;;;;;;19.73;3.40;;;;;;;16.98;62.13;102476.16;4987826;28;20475;-69
2022/07/08 07:41:40;;;;;;;19.17;2.55;;;;;;;17.05;61.85;102477.25;4990571;28;20044;-71
2022/07/08 07:44:06;;;;;;;13.48;3.15;;;;;;;16.89;62.62;102476.25;5003380;28;20070;-69
2022/07/08 07:46:32;;;;;;;17.85;3.17;;;;;;;16.53;63.64;102473.56;4992980;28;20036;-71
2022/07/08 07:48:57;;;;;;;31.60;4.15;;;;;;;16.84;63.24;102474.03;4989703;28;20017;-70
2022/07/08 07:51:23;;;;;;;18.17;3.55;;;;;;;16.73;64.11;102477.00;4987977;28;20018;-69
2022/07/08 07:53:48;;;;;;;19.65;4.07;;;;;;;16.87;63.68;102490.09;4987128;28;20114;-69
2022/07/08 07:56:17;;;;;;;15.32;2.92;;;;;;;16.80;64.25;102469.88;5001847;28;20041;-70
2022/07/08 07:58:42;;;;;;;30.92;4.30;;;;;;;16.96;63.46;102472.75;5013308;28;20502;-69
2022/07/08 08:01:07;;;;;;;29.17;3.92;;;;;;;16.81;64.39;102490.75;4986832;28;20038;-69
2022/07/08 08:03:33;;;;;;;28.40;4.20;;;;;;;16.94;63.58;102485.72;5007753;28;20018;-71
2022/07/08 08:06:00;;;;;;;14.05;3.03;;;;;;;16.88;64.04;102486.34;4988589;28;20381;-72
2022/07/08 08:08:31;;;;;;;27.13;3.25;;;;;;;16.96;64.02;102494.63;5003630;28;20017;-69
2022/07/08 08:11:00;;;;;;;35.42;4.57;;;;;;;17.00;64.75;102500.63;4997616;28;20086;-71
2022/07/08 08:13:26;;;;;;;20.52;3.80;;;;;;;16.81;66.41;102496.22;5001565;28;20053;-70
2022/07/08 08:15:51;;;;;;;25.70;3.90;;;;;;;16.34;69.00;102515.59;5002175;28;20034;-68
2022/07/08 08:18:17;;;;;;;27.02;3.90;;;;;;;16.08;70.87;102509.19;4990836;28;20037;-70
2022/07/08 08:20:43;;;;;;;14.02;3.80;;;;;;;16.06;72.64;102508.50;4987828;28;20024;-70
2022/07/08 08:23:09;;;;;;;22.00;3.63;;;;;;;15.88;73.48;102498.41;4986520;28;20029;-71
2022/07/08 08:25:35;;;;;;;18.95;3.63;;;;;;;15.94;73.06;102514.16;5016186;28;20036;-71
2022/07/08 08:28:00;;;;;;;27.02;5.35;;;;;;;16.18;73.57;102504.53;4991854;28;20021;-72
2022/07/08 08:30:38;;;;;;;39.33;4.75;;;;;;;15.98;75.10;102512.88;5015363;23;20118;-75
2022/07/08 08:33:14;;;;;;;26.00;4.10;;;;;;;16.12;75.75;102505.16;4946204;28;20050;-73
2022/07/08 08:35:57;;;;;;;27.90;5.22;;;;;;;15.69;77.92;102514.88;4946796;28;20043;-75
2022/07/08 08:38:54;;;;;;;28.10;5.32;;;;;;;15.71;79.19;102518.31;4946592;28;20027;-75
2022/07/08 08:41:54;;;;;;;23.75;4.75;;;;;;;15.64;80.09;102525.41;4949627;28;20037;-73
2022/07/08 08:44:52;;;;;;;22.42;5.55;;;;;;;15.60;80.76;102526.69;4942522;28;20035;-76
2022/07/08 08:47:40;;;;;;;20.13;5.10;;;;;;;15.72;81.58;102526.38;4960396;28;20023;-74
2022/07/08 08:53:14;;;;;;;18.73;5.07;;;;;;;15.88;82.20;102525.72;4945398;28;20026;-74
2022/07/08 08:55:59;;;;;;;17.88;4.75;;;;;;;15.93;82.15;102526.13;4962110;28;20023;-74
2022/07/08 08:58:40;;;;;;;19.00;3.95;;;;;;;15.45;83.21;102521.75;4956331;28;20058;-74
2022/07/08 09:01:12;;;;;;;20.27;5.25;;;;;;;15.51;84.79;102522.13;4964153;28;20028;-75
2022/07/08 09:03:49;;;;;;;15.70;5.30;;;;;;;15.24;84.88;102526.53;4968325;28;20019;-76
2022/07/08 09:06:32;;;;;;;20.58;6.45;;;;;;;15.33;85.27;102522.94;4961799;28;20023;-75
2022/07/08 09:09:09;;;;;;;22.30;5.27;;;;;;;15.83;84.22;102522.56;4959877;28;20027;-75
2022/07/08 09:12:27;;;;;;;24.27;4.97;;;;;;;15.88;83.78;102520.25;4955814;28;20282;-75
2022/07/08 09:15:58;;;;;;;26.17;6.70;;;;;;;15.71;84.00;102515.59;4942086;28;20050;-75
2022/07/08 09:18:36;;;;;;;30.85;7.57;;;;;;;15.49;85.12;102514.09;4962534;28;20062;-74
2022/07/08 09:21:09;;;;;;;23.30;6.80;;;;;;;15.83;84.44;102517.09;4964452;28;20038;-75
2022/07/08 09:23:46;;;;;;;23.52;7.40;;;;;;;15.77;83.74;102520.44;4941877;28;20370;-75
2022/07/08 09:26:16;;;;;;;16.23;5.22;;;;;;;15.53;84.05;102514.66;4939611;28;20029;-74
2022/07/08 09:29:08;;;;;;;18.83;6.22;;;;;;;15.68;85.08;102521.38;4960989;28;20061;-75
2022/07/08 09:32:11;;;;;;;29.70;6.28;;;;;;;15.70;85.07;102519.34;4952606;28;20072;-74
2022/07/08 09:34:53;;;;;;;25.17;5.85;;;;;;;16.06;84.27;102514.81;4959349;28;20064;-75
2022/07/08 09:37:35;;;;;;;23.67;5.88;;;;;;;15.99;84.30;102506.38;4953825;28;20310;-75
2022/07/08 09:40:19;;;;;;;21.40;5.68;;;;;;;15.98;84.44;102510.13;4949397;28;20053;-74
2022/07/08 09:43:18;;;;;;;;;;;;;;;;;;;;;
2022/07/08 09:46:15;;;;;;;22.48;5.32;;;;;;;16.13;83.74;102507.72;4952538;28;20041;-74
2022/07/08 09:48:50;;;;;;;17.33;5.53;;;;;;;16.20;83.64;102513.44;4961396;28;20034;-74
2022/07/08 09:54:13;;;;;;;13.75;4.75;;;;;;;16.13;85.58;102507.72;4948668;28;20035;-75
2022/07/08 09:56:58;;;;;;;12.75;4.50;;;;;;;16.05;85.28;102504.06;4961722;28;20023;-74
2022/07/08 09:59:24;;;;;;;12.30;4.43;;;;;;;15.96;85.24;102498.47;4975335;28;20027;-74
2022/07/08 10:01:52;;;;;;;13.35;4.05;;;;;;;16.01;85.22;102493.41;4953333;28;20029;-74
2022/07/08 10:04:24;;;;;;;7.85;3.45;;;;;;;15.99;84.73;102509.13;4961420;28;20082;-74
2022/07/08 10:06:51;;;;;;;6.88;2.67;;;;;;;16.26;84.10;102504.59;4945260;28;20121;-74
2022/07/08 10:09:18;;;;;;;10.02;2.85;;;;;;;16.25;83.81;102505.63;4965259;28;20030;-74
2022/07/08 10:11:44;;;;;;;4.65;2.78;;;;;;;16.34;85.04;102499.22;4965871;28;20027;-74
2022/07/08 10:14:10;;;;;;;4.78;2.30;;;;;;;16.48;84.74;102501.38;4970507;28;20023;-74
2022/07/08 10:16:39;;;;;;;7.30;2.28;;;;;;;16.44;83.13;102489.06;4960565;28;20030;-76
2022/07/08 10:19:10;;;;;;;5.07;2.13;;;;;;;16.46;83.40;102495.22;4951716;28;20031;-74
2022/07/08 10:21:39;;;;;;;6.72;2.15;;;;;;;16.27;84.17;102492.66;4944244;28;20122;-73
2022/07/08 10:24:09;;;;;;;6.05;2.00;;;;;;;16.14;83.63;102505.84;4952222;28;20042;-74
2022/07/08 10:26:38;;;;;;;8.02;2.22;;;;;;;15.83;85.38;102484.31;4944235;28;20029;-75
2022/07/08 10:29:09;;;;;;;5.88;2.08;;;;;;;16.10;84.88;102490.75;4955497;28;20382;-74
2022/07/08 10:31:51;;;;;;;;;;;;;;;16.11;85.03;102481.56;4960117;28;20023;-75
2022/07/08 10:34:21;;;;;;;6.28;2.70;;;;;;;16.11;85.78;102497.97;4952773;28;19911;-74
2022/07/08 10:36:50;;;;;;;8.35;2.40;;;;;;;16.41;83.94;102511.22;4955392;28;20027;-75
2022/07/08 10:39:38;;;;;;;6.20;2.40;;;;;;;16.40;83.59;102509.53;4961599;28;20026;-75
2022/07/08 10:42:05;;;;;;;7.57;2.45;;;;;;;16.44;82.46;102510.94;4964394;28;20027;-75
2022/07/08 10:44:47;;;;;;;5.85;2.47;;;;;;;16.27;83.13;102503.59;4966588;28;20034;-74
2022/07/08 10:47:23;;;;;;;5.82;2.65;;;;;;;16.32;83.12;102512.19;4950367;28;20054;-73
2022/07/08 10:49:49;;;;;;;10.38;3.00;;;;;;;16.75;81.98;102496.84;4968126;28;20089;-74
2022/07/08 10:52:21;;;;;;;7.80;2.20;;;;;;;17.08;81.07;102504.31;4965414;28;20097;-75
2022/07/08 10:54:47;;;;;;;9.70;2.33;;;;;;;17.21;80.86;102489.28;4969876;28;20027;-74
2022/07/08 10:57:25;;;;;;;7.63;2.33;;;;;;;17.68;79.09;102491.59;4961883;28;20019;-74
2022/07/08 11:00:04;;;;;;;6.28;2.22;;;;;;;17.79;78.04;102485.81;4945828;28;20070;-74
2022/07/08 11:02:31;;;;;;;10.18;2.75;;;;;;;17.76;77.75;102502.59;4956155;28;20030;-74
2022/07/08 11:04:57;;;;;;;9.05;2.38;;;;;;;17.93;77.29;102492.53;4961325;28;20059;-73
2022/07/08 11:07:26;;;;;;;5.35;1.90;;;;;;;17.60;76.78;102493.28;4944747;28;20027;-75
2022/07/08 11:10:11;;;;;;;7.90;2.45;;;;;;;17.72;77.27;102490.25;4963065;28;20031;-74
2022/07/08 11:12:40;;;;;;;10.43;3.05;;;;;;;17.49;77.26;102500.94;4964929;28;20074;-75
2022/07/08 11:15:17;;;;;;;7.55;2.35;;;;;;;17.44;77.70;102486.84;4959972;28;20031;-75
2022/07/08 11:17:46;;;;;;;11.10;2.42;;;;;;;17.93;76.44;102490.69;4949019;28;20050;-75
2022/07/08 11:20:15;;;;;;;8.95;2.33;;;;;;;18.04;75.86;102484.84;4964067;28;20027;-74
2022/07/08 11:22:43;;;;;;;11.05;2.33;;;;;;;17.86;76.18;102498.69;4976711;28;20034;-74
2022/07/08 11:25:14;;;;;;;7.50;2.78;;;;;;;17.73;76.98;102491.97;4955944;28;20028;-74
2022/07/08 11:27:41;;;;;;;14.00;2.33;;;;;;;18.14;75.71;102499.28;4967208;28;20126;-74
2022/07/08 11:30:09;;;;;;;10.75;2.30;;;;;;;18.32;74.65;102481.81;4947538;29;20035;-74
2022/07/08 11:32:36;;;;;;;9.57;2.17;;;;;;;18.68;72.98;102483.22;4953693;28;20025;-74
2022/07/08 11:35:01;;;;;;;11.82;2.70;;;;;;;18.63;71.44;102493.81;4952329;28;20639;-72